Time;durP1;ratioP1;P1;durP2;ratioP2;P2;SDS_P1;SDS_P2;PMS_P1;PMS_P2;Temp;Humidity;BMP_temperature;BMP_pressure;BME280_temperature;BME280_humidity;BME280_pressure;Samples;Min_cycle;Max_cycle;Signal;HPM_P1;HPM_P2
2023/10/24 00:02:12;;;;;;;13.43;6.70;;;;;;;;;;5060895;28;20037;-65
2023/10/24 00:04:41;;;;;;;11.18;6.43;;;;;;;;;;5053934;28;20041;-64
2023/10/24 00:07:08;;;;;;;11.40;6.05;;;;;;;;;;5057662;28;20079;-66
2023/10/24 00:09:35;;;;;;;13.57;6.57;;;;;;;;;;5050535;28;20055;-67
2023/10/24 00:12:03;;;;;;;15.02;6.75;;;;;;;;;;5056154;28;20056;-65
2023/10/24 00:14:31;;;;;;;12.43;6.57;;;;;;;;;;5060614;28;20060;-66
2023/10/24 00:16:58;;;;;;;11.57;6.30;;;;;;;;;;5056951;28;20052;-65
2023/10/24 00:19:25;;;;;;;12.52;6.72;;;;;;;;;;5053667;28;20041;-65
2023/10/24 00:21:54;;;;;;;12.77;6.20;;;;;;;;;;5059384;28;20040;-64
2023/10/24 00:24:22;;;;;;;13.55;6.57;;;;;;;;;;5053981;28;20498;-64
2023/10/24 00:26:49;;;;;;;14.27;7.15;;;;;;;;;;5062576;28;20051;-64
2023/10/24 00:29:16;;;;;;;12.02;6.60;;;;;;;;;;5057965;28;20041;-63
2023/10/24 00:31:43;;;;;;;14.10;7.18;;;;;;;;;;5055527;28;20052;-64
2023/10/24 00:34:12;;;;;;;14.60;7.32;;;;;;;;;;5057500;28;20060;-64
2023/10/24 00:36:40;;;;;;;13.93;7.20;;;;;;;;;;5053521;28;20055;-64
2023/10/24 00:39:09;;;;;;;12.48;7.00;;;;;;;;;;5057239;28;20053;-64
2023/10/24 00:41:36;;;;;;;14.23;6.70;;;;;;;;;;5055396;28;20044;-64
2023/10/24 00:44:03;;;;;;;11.35;6.43;;;;;;;;;;5060448;28;20135;-65
2023/10/24 00:46:31;;;;;;;15.65;7.30;;;;;;;;;;5066557;28;20048;-64
2023/10/24 00:48:58;;;;;;;12.05;6.78;;;;;;;;;;5062483;28;20044;-65
2023/10/24 00:51:25;;;;;;;16.83;7.20;;;;;;;;;;5060491;28;20088;-64
2023/10/24 00:53:53;;;;;;;15.85;7.82;;;;;;;;;;5060814;28;20087;-64
2023/10/24 00:56:22;;;;;;;17.52;7.43;;;;;;;;;;5056390;28;20048;-64
2023/10/24 00:58:49;;;;;;;15.82;7.07;;;;;;;;;;5059880;28;20053;-64
2023/10/24 01:01:17;;;;;;;15.25;7.65;;;;;;;;;;5065918;28;20049;-63
2023/10/24 01:03:44;;;;;;;14.63;7.88;;;;;;;;;;5062518;28;20052;-64
2023/10/24 01:06:12;;;;;;;14.93;7.70;;;;;;;;;;5060334;28;20056;-64
2023/10/24 01:08:39;;;;;;;16.15;7.18;;;;;;;;;;5055089;28;20053;-64
2023/10/24 01:11:06;;;;;;;15.60;8.30;;;;;;;;;;5064965;28;20048;-64
2023/10/24 01:13:35;;;;;;;16.15;8.07;;;;;;;;;;5066085;28;20044;-65
2023/10/24 01:16:03;;;;;;;17.13;8.13;;;;;;;;;;5057395;28;20040;-66
2023/10/24 01:18:30;;;;;;;17.45;7.43;;;;;;;;;;5057230;28;20056;-64
2023/10/24 01:20:57;;;;;;;16.50;8.30;;;;;;;;;;5054692;28;20040;-63
2023/10/24 01:23:28;;;;;;;19.35;8.45;;;;;;;;;;5053991;28;20049;-64
2023/10/24 01:25:57;;;;;;;13.93;7.53;;;;;;;;;;5056674;28;20140;-64
2023/10/24 01:28:25;;;;;;;15.65;8.32;;;;;;;;;;5059953;28;20055;-63
2023/10/24 01:30:53;;;;;;;16.92;8.57;;;;;;;;;;5061304;28;20052;-63
2023/10/24 01:33:21;;;;;;;16.23;7.53;;;;;;;;;;5058086;28;20045;-64
2023/10/24 01:35:48;;;;;;;18.15;8.82;;;;;;;;;;5062077;28;20045;-64
2023/10/24 01:38:15;;;;;;;15.73;8.25;;;;;;;;;;5054313;28;20068;-64
2023/10/24 01:40:44;;;;;;;16.38;7.63;;;;;;;;;;5055646;28;20826;-64
2023/10/24 01:43:11;;;;;;;18.90;8.80;;;;;;;;;;5062523;28;20492;-65
2023/10/24 01:45:38;;;;;;;22.77;9.55;;;;;;;;;;5055460;28;20068;-64
2023/10/24 01:48:06;;;;;;;21.48;8.82;;;;;;;;;;5065260;28;20507;-64
2023/10/24 01:50:33;;;;;;;19.88;8.55;;;;;;;;;;5061705;28;20067;-65
2023/10/24 01:53:01;;;;;;;18.50;8.70;;;;;;;;;;5058750;28;20457;-64
2023/10/24 01:55:28;;;;;;;20.27;9.15;;;;;;;;;;5062455;28;20052;-64
2023/10/24 01:57:56;;;;;;;15.55;8.52;;;;;;;;;;5060983;28;20049;-63
2023/10/24 02:00:24;;;;;;;17.08;8.60;;;;;;;;;;5056285;28;20049;-64
2023/10/24 02:02:53;;;;;;;19.88;9.02;;;;;;;;;;5060620;28;20052;-64
2023/10/24 02:05:21;;;;;;;18.48;8.43;;;;;;;;;;5061484;28;20040;-63
2023/10/24 02:07:48;;;;;;;15.25;7.63;;;;;;;;;;5063633;28;20094;-64
2023/10/24 02:10:15;;;;;;;16.63;8.18;;;;;;;;;;5059627;28;20044;-65
2023/10/24 02:12:43;;;;;;;17.63;8.25;;;;;;;;;;5058563;28;20044;-65
2023/10/24 02:15:12;;;;;;;18.58;8.38;;;;;;;;;;5056843;28;20045;-65
2023/10/24 02:17:41;;;;;;;21.70;9.48;;;;;;;;;;5057957;28;20514;-64
2023/10/24 02:20:09;;;;;;;19.13;8.38;;;;;;;;;;5061668;28;20055;-63
2023/10/24 02:22:36;;;;;;;19.50;8.50;;;;;;;;;;5066545;28;20045;-64
2023/10/24 02:25:04;;;;;;;20.25;8.52;;;;;;;;;;5062816;28;20048;-65
2023/10/24 02:27:31;;;;;;;16.85;8.70;;;;;;;;;;5063322;28;20056;-64
2023/10/24 02:29:58;;;;;;;15.73;8.50;;;;;;;;;;5060941;28;20063;-65
2023/10/24 02:32:27;;;;;;;19.23;8.77;;;;;;;;;;5055942;28;20057;-63
2023/10/24 02:34:54;;;;;;;20.50;8.88;;;;;;;;;;5057715;28;20059;-63
2023/10/24 02:37:21;;;;;;;18.27;8.35;;;;;;;;;;5064217;28;20045;-65
2023/10/24 02:39:49;;;;;;;19.85;9.50;;;;;;;;;;5056232;28;20053;-64
2023/10/24 02:42:16;;;;;;;15.20;8.05;;;;;;;;;;5056060;28;20052;-65
2023/10/24 02:44:43;;;;;;;19.05;8.45;;;;;;;;;;5059281;28;20054;-64
2023/10/24 02:47:10;;;;;;;18.27;8.65;;;;;;;;;;5061152;28;20463;-63
2023/10/24 02:49:39;;;;;;;17.95;8.52;;;;;;;;;;5061916;28;20052;-64
2023/10/24 02:52:06;;;;;;;18.77;8.65;;;;;;;;;;5056820;28;20128;-64
2023/10/24 02:54:34;;;;;;;15.73;8.18;;;;;;;;;;5056728;28;20064;-65
2023/10/24 02:57:01;;;;;;;15.18;7.55;;;;;;;;;;5064234;28;20044;-64
2023/10/24 02:59:28;;;;;;;18.85;8.20;;;;;;;;;;5065198;28;20045;-64
2023/10/24 03:01:55;;;;;;;20.55;8.40;;;;;;;;;;5059331;28;20045;-63
2023/10/24 03:04:23;;;;;;;16.77;7.78;;;;;;;;;;5064050;28;20094;-64
2023/10/24 03:06:51;;;;;;;17.05;8.20;;;;;;;;;;5062251;28;20111;-67
2023/10/24 03:09:18;;;;;;;17.77;7.80;;;;;;;;;;5063583;28;20048;-64
2023/10/24 03:11:46;;;;;;;15.10;7.85;;;;;;;;;;5063243;28;20056;-64
2023/10/24 03:14:13;;;;;;;13.80;7.68;;;;;;;;;;5061812;28;20049;-66
2023/10/24 03:16:40;;;;;;;18.98;7.90;;;;;;;;;;5060726;28;20049;-64
2023/10/24 03:19:08;;;;;;;16.55;7.85;;;;;;;;;;5056593;28;20423;-64
2023/10/24 03:21:35;;;;;;;18.30;8.07;;;;;;;;;;5056960;28;20048;-65
2023/10/24 03:24:03;;;;;;;17.60;8.27;;;;;;;;;;5056927;28;20055;-63
2023/10/24 03:26:31;;;;;;;17.45;7.95;;;;;;;;;;5058535;28;20099;-63
2023/10/24 03:28:58;;;;;;;16.70;7.25;;;;;;;;;;5058302;28;20049;-63
2023/10/24 03:31:25;;;;;;;18.13;7.20;;;;;;;;;;5060502;28;20052;-63
2023/10/24 03:33:52;;;;;;;14.45;6.97;;;;;;;;;;5062908;28;20044;-64
2023/10/24 03:36:19;;;;;;;13.20;7.20;;;;;;;;;;5056959;28;20408;-64
2023/10/24 03:38:47;;;;;;;12.30;6.57;;;;;;;;;;5063006;28;20052;-64
2023/10/24 03:41:15;;;;;;;15.27;7.30;;;;;;;;;;5054539;28;20045;-64
2023/10/24 03:43:47;;;;;;;13.85;7.00;;;;;;;;;;5055509;28;20049;-63
2023/10/24 03:46:15;;;;;;;13.20;6.82;;;;;;;;;;5059182;28;20053;-63
2023/10/24 03:48:42;;;;;;;12.60;6.53;;;;;;;;;;5059130;28;20053;-65
2023/10/24 03:51:09;;;;;;;13.77;7.03;;;;;;;;;;5063307;28;20067;-64
2023/10/24 03:53:36;;;;;;;11.65;6.50;;;;;;;;;;5059084;28;20045;-65
2023/10/24 03:56:04;;;;;;;13.57;6.47;;;;;;;;;;5056650;28;20063;-64
2023/10/24 03:58:33;;;;;;;12.93;6.55;;;;;;;;;;5056687;28;20125;-64
2023/10/24 04:01:05;;;;;;;11.18;6.65;;;;;;;;;;5059508;28;20049;-64
2023/10/24 04:03:32;;;;;;;14.45;6.63;;;;;;;;;;5062989;28;20489;-65
2023/10/24 04:05:59;;;;;;;9.05;5.90;;;;;;;;;;5052441;28;20049;-64
2023/10/24 04:08:27;;;;;;;13.00;6.43;;;;;;;;;;5060202;28;20186;-65
2023/10/24 04:10:54;;;;;;;12.38;6.72;;;;;;;;;;5056471;28;20054;-64
2023/10/24 04:13:21;;;;;;;10.43;5.72;;;;;;;;;;5054304;28;20492;-64
2023/10/24 04:15:51;;;;;;;13.48;6.63;;;;;;;;;;5060237;28;20056;-64
2023/10/24 04:18:18;;;;;;;11.73;6.38;;;;;;;;;;5056875;28;20766;-65
2023/10/24 04:20:46;;;;;;;14.45;6.70;;;;;;;;;;5061709;28;20047;-64
2023/10/24 04:23:15;;;;;;;12.38;5.97;;;;;;;;;;5058051;28;20507;-67
2023/10/24 04:25:42;;;;;;;11.90;6.05;;;;;;;;;;5058843;28;20061;-64
2023/10/24 04:28:09;;;;;;;11.85;6.63;;;;;;;;;;5060231;28;20045;-65
2023/10/24 04:30:39;;;;;;;13.82;6.82;;;;;;;;;;5054741;28;20044;-65
2023/10/24 04:33:08;;;;;;;14.80;7.20;;;;;;;;;;5066131;28;20056;-65
2023/10/24 04:35:41;;;;;;;15.38;6.75;;;;;;;;;;5054782;28;20148;-65
2023/10/24 04:38:08;;;;;;;17.02;6.57;;;;;;;;;;5059597;28;20480;-64
2023/10/24 04:40:38;;;;;;;16.23;7.13;;;;;;;;;;5058138;28;20044;-65
2023/10/24 04:43:05;;;;;;;13.77;6.75;;;;;;;;;;5058097;28;20142;-63
2023/10/24 04:45:33;;;;;;;13.57;7.30;;;;;;;;;;5061110;28;20052;-63
2023/10/24 04:48:00;;;;;;;16.80;7.35;;;;;;;;;;5063456;28;20049;-64
2023/10/24 04:50:29;;;;;;;16.48;7.65;;;;;;;;;;5055749;28;20060;-64
2023/10/24 04:52:56;;;;;;;14.40;6.95;;;;;;;;;;5062299;28;20053;-64
2023/10/24 04:55:23;;;;;;;17.83;7.53;;;;;;;;;;5063388;28;20051;-64
2023/10/24 04:57:51;;;;;;;14.63;7.45;;;;;;;;;;5065676;28;20520;-64
2023/10/24 05:00:19;;;;;;;23.40;7.63;;;;;;;;;;5063130;28;20049;-67
2023/10/24 05:02:46;;;;;;;18.33;7.93;;;;;;;;;;5064327;28;20041;-64
2023/10/24 05:05:14;;;;;;;14.20;7.32;;;;;;;;;;5060546;28;20049;-64
2023/10/24 05:07:42;;;;;;;17.52;8.05;;;;;;;;;;5063389;28;20411;-63
2023/10/24 05:10:11;;;;;;;17.20;7.93;;;;;;;;;;5052549;28;20060;-65
2023/10/24 05:12:38;;;;;;;17.83;7.85;;;;;;;;;;5063662;28;20045;-63
2023/10/24 05:15:06;;;;;;;20.17;8.20;;;;;;;;;;5057908;28;20052;-64
2023/10/24 05:17:33;;;;;;;16.38;8.23;;;;;;;;;;5060440;28;20052;-63
2023/10/24 05:20:02;;;;;;;14.85;7.50;;;;;;;;;;5059877;28;20045;-64
2023/10/24 05:22:30;;;;;;;21.27;8.30;;;;;;;;;;5066547;28;20494;-63
2023/10/24 05:24:58;;;;;;;21.80;9.40;;;;;;;;;;5058106;28;20118;-63
2023/10/24 05:27:27;;;;;;;18.58;8.55;;;;;;;;;;5057242;28;20123;-63
2023/10/24 05:29:54;;;;;;;20.33;9.18;;;;;;;;;;5055547;28;20056;-62
2023/10/24 05:32:21;;;;;;;19.15;9.07;;;;;;;;;;5054243;28;20060;-63
2023/10/24 05:34:48;;;;;;;18.55;9.43;;;;;;;;;;5055645;28;20053;-63
2023/10/24 05:37:16;;;;;;;28.73;10.75;;;;;;;;;;5059634;28;20052;-64
2023/10/24 05:39:43;;;;;;;26.55;11.52;;;;;;;;;;5057489;28;20072;-65
2023/10/24 05:42:12;;;;;;;23.42;11.93;;;;;;;;;;5057671;28;20049;-63
2023/10/24 05:44:39;;;;;;;25.60;12.55;;;;;;;;;;5058496;28;20049;-64
2023/10/24 05:47:06;;;;;;;27.27;12.13;;;;;;;;;;5049859;28;20049;-64
2023/10/24 05:49:34;;;;;;;30.60;13.65;;;;;;;;;;5067817;28;20056;-62
2023/10/24 05:52:01;;;;;;;27.40;12.93;;;;;;;;;;5058774;28;20130;-63
2023/10/24 05:54:29;;;;;;;31.40;12.70;;;;;;;;;;5064531;28;20048;-64
2023/10/24 05:56:56;;;;;;;26.02;13.40;;;;;;;;;;5066320;28;20045;-63
2023/10/24 05:59:26;;;;;;;27.25;12.73;;;;;;;;;;5063398;28;20060;-63
2023/10/24 06:01:53;;;;;;;24.58;13.10;;;;;;;;;;5059315;28;20047;-62
2023/10/24 06:04:20;;;;;;;27.05;12.57;;;;;;;;;;5060900;28;20059;-66
2023/10/24 06:06:48;;;;;;;21.92;12.00;;;;;;;;;;5058906;28;20052;-63
2023/10/24 06:09:15;;;;;;;31.30;12.52;;;;;;;;;;5059787;28;20041;-64
2023/10/24 06:11:42;;;;;;;21.52;11.90;;;;;;;;;;5064814;28;20052;-64
2023/10/24 06:14:09;;;;;;;24.23;12.30;;;;;;;;;;5065021;28;20053;-64
2023/10/24 06:16:38;;;;;;;21.00;11.57;;;;;;;;;;5061559;28;20044;-63
2023/10/24 06:19:06;;;;;;;25.52;11.75;;;;;;;;;;5060520;28;20125;-64
2023/10/24 06:21:33;;;;;;;24.98;11.77;;;;;;;;;;5063381;28;20049;-62
2023/10/24 06:24:00;;;;;;;24.38;12.50;;;;;;;;;;5056467;28;20664;-62
2023/10/24 06:26:27;;;;;;;24.15;13.32;;;;;;;;;;5053591;28;20055;-63
2023/10/24 06:28:55;;;;;;;24.27;11.70;;;;;;;;;;5060149;28;20586;-62
2023/10/24 06:31:22;;;;;;;27.67;12.15;;;;;;;;;;5065776;28;20480;-63
2023/10/24 06:33:51;;;;;;;24.25;12.70;;;;;;;;;;5060541;28;20052;-63
2023/10/24 06:36:18;;;;;;;31.15;13.52;;;;;;;;;;5065970;28;20055;-62
2023/10/24 06:38:45;;;;;;;27.13;12.48;;;;;;;;;;5052977;28;20049;-65
2023/10/24 06:41:13;;;;;;;23.17;12.57;;;;;;;;;;5068179;28;20044;-64
2023/10/24 06:43:40;;;;;;;23.88;12.73;;;;;;;;;;5066433;28;20072;-65
2023/10/24 06:46:08;;;;;;;24.95;12.43;;;;;;;;;;5057429;28;20135;-63
2023/10/24 06:48:35;;;;;;;23.00;12.30;;;;;;;;;;5059305;28;20041;-64
2023/10/24 06:51:04;;;;;;;26.98;12.90;;;;;;;;;;5055112;28;20051;-63
2023/10/24 06:53:31;;;;;;;22.60;12.02;;;;;;;;;;5058295;28;20049;-64
2023/10/24 06:56:02;;;;;;;27.30;12.15;;;;;;;;;;5060243;28;20514;-63
2023/10/24 06:58:29;;;;;;;26.42;12.07;;;;;;;;;;5066867;28;20060;-64
2023/10/24 07:00:56;;;;;;;27.70;12.20;;;;;;;;;;5058616;28;20412;-62
2023/10/24 07:03:24;;;;;;;24.67;11.85;;;;;;;;;;5061077;28;20503;-62
2023/10/24 07:05:52;;;;;;;21.25;11.80;;;;;;;;;;5059789;28;20045;-63
2023/10/24 07:08:20;;;;;;;21.25;10.43;;;;;;;;;;5061935;28;20117;-62
2023/10/24 07:10:48;;;;;;;30.65;11.55;;;;;;;;;;5056550;28;20048;-62
2023/10/24 07:13:15;;;;;;;24.38;10.50;;;;;;;;;;5062048;28;20058;-63
2023/10/24 07:15:42;;;;;;;20.35;10.20;;;;;;;;;;5060537;28;20048;-62
2023/10/24 07:18:09;;;;;;;27.08;10.02;;;;;;;;;;5060407;28;20372;-63
2023/10/24 07:20:37;;;;;;;19.60;9.45;;;;;;;;;;5056428;28;20048;-63
2023/10/24 07:23:04;;;;;;;30.25;9.88;;;;;;;;;;5061819;28;20053;-63
2023/10/24 07:25:33;;;;;;;19.85;9.57;;;;;;;;;;5058257;28;20053;-63
2023/10/24 07:28:01;;;;;;;17.83;8.75;;;;;;;;;;5053505;28;20056;-62
2023/10/24 07:30:29;;;;;;;18.23;8.85;;;;;;;;;;5057404;28;20049;-64
2023/10/24 07:32:56;;;;;;;16.17;7.82;;;;;;;;;;5059822;28;20051;-62
2023/10/24 07:35:24;;;;;;;19.75;8.90;;;;;;;;;;5063307;28;20045;-63
2023/10/24 07:37:53;;;;;;;15.85;7.90;;;;;;;;;;5063610;28;20053;-62
2023/10/24 07:40:20;;;;;;;18.75;8.18;;;;;;;;;;5054507;28;20106;-63
2023/10/24 07:42:49;;;;;;;17.05;7.82;;;;;;;;;;5065173;28;20041;-63
2023/10/24 07:45:16;;;;;;;18.77;8.57;;;;;;;;;;5067247;28;20052;-63
2023/10/24 07:47:43;;;;;;;18.38;7.40;;;;;;;;;;5059984;28;20067;-63
2023/10/24 07:50:11;;;;;;;19.13;8.38;;;;;;;;;;5060227;28;20052;-63
2023/10/24 07:52:38;;;;;;;18.13;7.95;;;;;;;;;;5055077;28;20583;-61
2023/10/24 07:55:06;;;;;;;15.85;8.23;;;;;;;;;;5058038;28;20064;-63
2023/10/24 07:57:33;;;;;;;16.42;8.10;;;;;;;;;;5058122;28;20100;-62
2023/10/24 08:00:01;;;;;;;18.92;8.27;;;;;;;;;;5062793;28;20071;-62
2023/10/24 08:02:29;;;;;;;25.80;8.02;;;;;;;;;;5057360;28;20049;-64
2023/10/24 08:04:56;;;;;;;18.58;8.52;;;;;;;;;;5062219;28;20048;-64
2023/10/24 08:07:23;;;;;;;16.45;8.98;;;;;;;;;;5058732;28;20060;-62
2023/10/24 08:09:51;;;;;;;23.77;9.25;;;;;;;;;;5057326;28;20079;-63
2023/10/24 08:12:19;;;;;;;19.05;8.60;;;;;;;;;;5064260;28;20480;-63
2023/10/24 08:14:46;;;;;;;23.25;9.27;;;;;;;;;;5064906;28;20060;-64
2023/10/24 08:17:15;;;;;;;18.67;8.80;;;;;;;;;;5053918;28;20057;-65
2023/10/24 08:19:42;;;;;;;23.85;9.60;;;;;;;;;;5058367;28;20052;-62
2023/10/24 08:22:09;;;;;;;20.40;9.50;;;;;;;;;;5058218;28;20041;-62
2023/10/24 08:24:36;;;;;;;21.88;9.38;;;;;;;;;;5058519;28;20053;-64
2023/10/24 08:27:04;;;;;;;25.50;9.73;;;;;;;;;;5061615;28;20052;-63
2023/10/24 08:29:31;;;;;;;20.42;9.82;;;;;;;;;;5063448;28;20044;-62
2023/10/24 08:31:58;;;;;;;18.70;9.82;;;;;;;;;;5062274;28;20131;-63
2023/10/24 08:34:27;;;;;;;26.08;10.15;;;;;;;;;;5061969;28;20052;-63
2023/10/24 08:36:54;;;;;;;27.35;9.98;;;;;;;;;;5057729;28;20067;-62
2023/10/24 08:39:23;;;;;;;22.65;10.38;;;;;;;;;;5057793;28;20053;-62
2023/10/24 08:41:53;;;;;;;23.40;10.38;;;;;;;;;;5066281;28;20044;-63
2023/10/24 08:44:22;;;;;;;28.73;11.32;;;;;;;;;;5058321;28;20045;-63
2023/10/24 08:46:50;;;;;;;27.50;10.93;;;;;;;;;;5052574;28;20044;-63
2023/10/24 08:49:18;;;;;;;29.75;11.80;;;;;;;;;;5064996;28;20748;-63
2023/10/24 08:51:47;;;;;;;28.10;12.25;;;;;;;;;;5056084;28;20099;-62
2023/10/24 08:54:14;;;;;;;31.40;12.63;;;;;;;;;;5055077;28;20057;-63
2023/10/24 08:56:43;;;;;;;29.50;12.27;;;;;;;;;;5059772;28;20403;-63
2023/10/24 08:59:11;;;;;;;30.70;13.43;;;;;;;;;;5056908;28;20052;-64
2023/10/24 09:01:38;;;;;;;35.85;14.65;;;;;;;;;;5055166;28;20139;-63
2023/10/24 09:04:06;;;;;;;33.72;13.63;;;;;;;;;;5056253;28;20044;-62
2023/10/24 09:06:34;;;;;;;33.40;14.15;;;;;;;;;;5059118;28;20060;-63
2023/10/24 09:09:03;;;;;;;30.92;14.30;;;;;;;;;;5057481;28;20100;-62
2023/10/24 09:11:45;;;;;;;34.75;14.95;;;;;;;;;;5053937;28;20075;-62
2023/10/24 09:14:12;;;;;;;37.10;15.32;;;;;;;;;;5063666;28;20058;-63
2023/10/24 09:16:40;;;;;;;33.10;14.20;;;;;;;;;;5065221;28;20057;-64
2023/10/24 09:19:13;;;;;;;29.83;13.50;;;;;;;;;;5057679;28;20049;-63
2023/10/24 09:21:40;;;;;;;30.08;14.73;;;;;;;;;;5059197;28;20403;-64
2023/10/24 09:24:12;;;;;;;33.88;14.93;;;;;;;;;;5059435;28;20412;-62
2023/10/24 09:26:39;;;;;;;26.67;13.68;;;;;;;;;;5067175;28;20438;-63
2023/10/24 09:29:09;;;;;;;33.85;14.05;;;;;;;;;;5061384;28;20056;-64
2023/10/24 09:31:36;;;;;;;39.42;13.82;;;;;;;;;;5064883;28;20380;-62
2023/10/24 09:34:03;;;;;;;28.60;14.27;;;;;;;;;;5058472;28;20502;-64
2023/10/24 09:36:31;;;;;;;28.13;14.30;;;;;;;;;;5063257;28;20059;-62
2023/10/24 09:38:59;;;;;;;33.33;14.13;;;;;;;;;;5057467;28;20047;-64
2023/10/24 09:41:27;;;;;;;28.77;14.25;;;;;;;;;;5057886;28;20040;-63
2023/10/24 09:43:56;;;;;;;30.20;14.68;;;;;;;;;;5060404;28;20052;-62
2023/10/24 09:46:24;;;;;;;29.33;14.23;;;;;;;;;;5063967;28;20102;-63
2023/10/24 09:48:52;;;;;;;27.55;14.32;;;;;;;;;;5065814;28;20059;-63
2023/10/24 09:51:20;;;;;;;28.38;14.43;;;;;;;;;;5058509;28;20408;-63
2023/10/24 09:53:48;;;;;;;33.33;14.45;;;;;;;;;;5062855;28;20047;-63
2023/10/24 09:56:15;;;;;;;31.30;14.88;;;;;;;;;;5060200;28;20060;-62
2023/10/24 09:58:44;;;;;;;30.77;14.13;;;;;;;;;;5059218;28;20044;-63
2023/10/24 10:01:11;;;;;;;35.85;14.27;;;;;;;;;;5057442;28;20504;-65
2023/10/24 10:03:39;;;;;;;30.58;14.88;;;;;;;;;;5065363;28;20044;-63
2023/10/24 10:06:07;;;;;;;30.45;15.45;;;;;;;;;;5064057;28;20049;-63
2023/10/24 10:08:36;;;;;;;27.42;14.57;;;;;;;;;;5056239;28;20400;-63
2023/10/24 10:11:04;;;;;;;29.95;14.32;;;;;;;;;;5061152;28;20373;-63
2023/10/24 10:13:32;;;;;;;30.60;14.77;;;;;;;;;;5058669;28;20493;-64
2023/10/24 10:16:11;;;;;;;37.08;14.90;;;;;;;;;;5062306;28;20048;-63
2023/10/24 10:18:59;;;;;;;32.70;14.02;;;;;;;;;;5056198;28;20067;-62
2023/10/24 10:21:41;;;;;;;26.73;12.73;;;;;;;;;;5057529;28;20070;-63
2023/10/24 10:24:26;;;;;;;22.17;11.95;;;;;;;;;;5066247;28;20048;-63
2023/10/24 10:27:03;;;;;;;24.88;13.00;;;;;;;;;;5058898;28;20089;-64
2023/10/24 10:29:39;;;;;;;29.88;14.27;;;;;;;;;;5059263;28;20507;-65
2023/10/24 10:32:14;;;;;;;30.10;13.50;;;;;;;;;;5059611;28;20048;-63
2023/10/24 10:34:42;;;;;;;33.72;14.43;;;;;;;;;;5059772;28;20045;-63
2023/10/24 10:37:10;;;;;;;34.65;14.98;;;;;;;;;;5063147;28;20397;-63
2023/10/24 10:39:38;;;;;;;29.17;15.13;;;;;;;;;;5059146;28;20488;-64
2023/10/24 10:42:06;;;;;;;28.13;14.55;;;;;;;;;;5055384;28;20060;-65
2023/10/24 10:44:41;;;;;;;34.60;14.63;;;;;;;;;;5061621;28;20044;-62
2023/10/24 10:47:12;;;;;;;30.25;14.32;;;;;;;;;;5064630;28;20059;-63
2023/10/24 10:49:43;;;;;;;32.63;14.70;;;;;;;;;;5066703;28;20044;-63
2023/10/24 10:52:13;;;;;;;33.90;14.48;;;;;;;;;;5060444;28;20056;-62
2023/10/24 10:54:45;;;;;;;28.65;13.85;;;;;;;;;;5062710;28;20083;-63
2023/10/24 10:57:14;;;;;;;29.55;14.23;;;;;;;;;;5058184;28;20508;-62
2023/10/24 10:59:45;;;;;;;27.58;14.10;;;;;;;;;;5061018;28;20048;-63
2023/10/24 11:02:23;;;;;;;28.67;14.38;;;;;;;;;;5060592;28;20049;-64
2023/10/24 11:04:50;;;;;;;28.73;14.65;;;;;;;;;;5055618;28;20052;-63
2023/10/24 11:07:17;;;;;;;37.35;15.10;;;;;;;;;;5054343;28;20052;-64
2023/10/24 11:09:44;;;;;;;26.60;14.00;;;;;;;;;;5054416;28;20076;-65
2023/10/24 11:12:25;;;;;;;36.47;14.57;;;;;;;;;;5059535;28;20044;-63
2023/10/24 11:15:25;;;;;;;37.33;15.05;;;;;;;;;;5060910;28;20530;-63
2023/10/24 11:17:54;;;;;;;39.70;14.98;;;;;;;;;;4979532;28;20061;-62
2023/10/24 11:20:23;;;;;;;28.33;13.85;;;;;;;;;;4979816;28;20587;-63
2023/10/24 11:22:51;;;;;;;32.55;14.88;;;;;;;;;;5017665;28;20045;-64
2023/10/24 11:25:19;;;;;;;29.30;14.80;;;;;;;;;;5066030;28;20052;-63
2023/10/24 11:27:48;;;;;;;29.88;14.90;;;;;;;;;;5058337;28;20139;-63
2023/10/24 11:30:15;;;;;;;30.17;14.77;;;;;;;;;;5057998;28;20131;-63
2023/10/24 11:32:42;;;;;;;29.35;14.70;;;;;;;;;;5058506;28;20510;-63
2023/10/24 11:35:11;;;;;;;29.50;15.70;;;;;;;;;;5061134;28;20048;-64
2023/10/24 11:37:39;;;;;;;27.67;15.23;;;;;;;;;;5051692;28;20071;-63
2023/10/24 11:40:07;;;;;;;30.33;14.70;;;;;;;;;;5067637;28;20053;-63
2023/10/24 11:42:34;;;;;;;28.70;15.00;;;;;;;;;;5061551;28;20041;-66
2023/10/24 11:45:01;;;;;;;28.73;14.48;;;;;;;;;;5057740;28;20055;-63
2023/10/24 11:47:29;;;;;;;25.38;14.82;;;;;;;;;;5062612;28;20052;-64
2023/10/24 11:49:57;;;;;;;26.25;14.38;;;;;;;;;;5060980;28;20055;-66
2023/10/24 11:52:26;;;;;;;25.50;14.85;;;;;;;;;;5055316;28;20488;-63
2023/10/24 11:54:53;;;;;;;25.35;15.02;;;;;;;;;;5059435;28;20520;-63
2023/10/24 11:57:22;;;;;;;24.77;13.88;;;;;;;;;;5061211;28;20044;-63
2023/10/24 11:59:49;;;;;;;23.17;13.60;;;;;;;;;;5057591;28;20052;-63
2023/10/24 12:02:17;;;;;;;26.75;14.18;;;;;;;;;;5057358;28;20476;-63
2023/10/24 12:04:49;;;;;;;26.83;14.60;;;;;;;;;;5064524;28;20057;-65
2023/10/24 12:07:17;;;;;;;22.33;13.55;;;;;;;;;;5055924;28;20456;-62
2023/10/24 12:09:45;;;;;;;19.52;12.50;;;;;;;;;;5067009;28;20114;-67
2023/10/24 12:12:14;;;;;;;23.95;12.52;;;;;;;;;;5067330;28;20140;-63
2023/10/24 12:14:42;;;;;;;20.60;11.95;;;;;;;;;;5060015;28;20043;-63
2023/10/24 12:17:10;;;;;;;16.98;11.88;;;;;;;;;;5062049;28;20162;-63
2023/10/24 12:19:37;;;;;;;19.02;11.60;;;;;;;;;;5057314;28;20071;-63
2023/10/24 12:22:04;;;;;;;16.80;11.10;;;;;;;;;;5057672;28;20748;-63
2023/10/24 12:24:31;;;;;;;17.80;10.40;;;;;;;;;;5062224;28;20044;-65
2023/10/24 12:27:00;;;;;;;16.58;10.45;;;;;;;;;;5063261;28;20045;-64
2023/10/24 12:29:27;;;;;;;15.82;10.05;;;;;;;;;;5069272;28;20861;-64
2023/10/24 12:31:55;;;;;;;13.90;9.82;;;;;;;;;;5063619;28;20056;-63
2023/10/24 12:34:22;;;;;;;16.55;9.30;;;;;;;;;;5055861;28;20052;-63
2023/10/24 12:36:51;;;;;;;12.70;9.00;;;;;;;;;;5063064;28;20052;-62
2023/10/24 12:39:21;;;;;;;13.30;9.13;;;;;;;;;;5057107;28;20098;-64
2023/10/24 12:41:48;;;;;;;14.30;8.77;;;;;;;;;;5064199;28;20495;-63
2023/10/24 12:44:17;;;;;;;13.52;8.82;;;;;;;;;;5059671;28;20061;-64
2023/10/24 12:46:45;;;;;;;14.85;8.80;;;;;;;;;;5056736;28;20124;-64
2023/10/24 12:49:12;;;;;;;12.43;8.25;;;;;;;;;;5054572;28;20049;-62
2023/10/24 12:51:40;;;;;;;12.48;8.38;;;;;;;;;;5059801;28;20055;-63
2023/10/24 12:54:07;;;;;;;14.98;9.07;;;;;;;;;;5056180;28;20130;-64
2023/10/24 12:56:35;;;;;;;15.50;9.20;;;;;;;;;;5051629;28;20091;-64
2023/10/24 12:59:02;;;;;;;12.90;9.48;;;;;;;;;;5052464;28;20408;-63
2023/10/24 13:01:30;;;;;;;13.93;8.95;;;;;;;;;;5062666;28;20059;-63
2023/10/24 13:03:58;;;;;;;14.05;9.13;;;;;;;;;;5056492;28;20075;-63
2023/10/24 13:06:25;;;;;;;14.70;9.40;;;;;;;;;;5067129;28;20056;-64
2023/10/24 13:08:52;;;;;;;19.25;9.07;;;;;;;;;;5058535;28;20064;-63
2023/10/24 13:11:20;;;;;;;17.52;9.27;;;;;;;;;;5053137;28;20128;-67
2023/10/24 13:13:47;;;;;;;15.30;9.65;;;;;;;;;;5053434;28;20067;-64
2023/10/24 13:16:14;;;;;;;15.45;9.85;;;;;;;;;;5050117;28;20053;-64
2023/10/24 13:18:43;;;;;;;17.02;9.52;;;;;;;;;;5062014;28;20404;-63
2023/10/24 13:21:10;;;;;;;13.25;9.55;;;;;;;;;;5065687;28;20056;-64
2023/10/24 13:23:37;;;;;;;14.55;9.90;;;;;;;;;;5062810;28;20051;-63
2023/10/24 13:26:04;;;;;;;16.73;9.68;;;;;;;;;;5064812;28;20045;-64
2023/10/24 13:28:31;;;;;;;14.13;9.70;;;;;;;;;;5058112;28;20052;-65
2023/10/24 13:30:59;;;;;;;14.88;10.23;;;;;;;;;;5057835;28;20056;-66
2023/10/24 13:33:26;;;;;;;15.00;10.73;;;;;;;;;;5059183;28;20052;-63
2023/10/24 13:35:55;;;;;;;17.73;10.90;;;;;;;;;;5056488;28;20056;-64
2023/10/24 13:38:22;;;;;;;17.42;11.10;;;;;;;;;;5066320;28;20144;-64
2023/10/24 13:40:49;;;;;;;15.93;11.23;;;;;;;;;;5060429;28;20056;-63
2023/10/24 13:43:16;;;;;;;20.27;11.70;;;;;;;;;;5064757;28;20490;-63
2023/10/24 13:45:43;;;;;;;16.67;11.75;;;;;;;;;;5063822;28;20037;-63
2023/10/24 13:48:11;;;;;;;20.23;12.15;;;;;;;;;;5064409;28;20053;-64
2023/10/24 13:50:38;;;;;;;19.17;11.95;;;;;;;;;;5061113;28;20052;-63
2023/10/24 13:53:07;;;;;;;17.52;11.68;;;;;;;;;;5058379;28;20045;-65
2023/10/24 13:55:36;;;;;;;19.67;12.55;;;;;;;;;;5050991;28;20060;-64
2023/10/24 13:58:03;;;;;;;20.48;11.30;;;;;;;;;;5059313;28;20053;-65
2023/10/24 14:00:31;;;;;;;21.17;12.27;;;;;;;;;;5056961;28;20055;-64
2023/10/24 14:02:58;;;;;;;18.85;11.90;;;;;;;;;;5053094;28;20052;-64
2023/10/24 14:05:25;;;;;;;21.02;11.77;;;;;;;;;;5055390;28;20044;-63
2023/10/24 14:07:53;;;;;;;15.73;11.48;;;;;;;;;;5062995;28;20063;-63
2023/10/24 14:10:22;;;;;;;18.75;11.02;;;;;;;;;;5054744;28;20136;-63
2023/10/24 14:12:49;;;;;;;19.25;11.45;;;;;;;;;;5067365;28;20051;-63
2023/10/24 14:15:16;;;;;;;18.77;11.27;;;;;;;;;;5064265;28;20098;-65
2023/10/24 14:17:44;;;;;;;18.05;10.88;;;;;;;;;;5069344;28;20056;-64
2023/10/24 14:20:11;;;;;;;15.70;11.20;;;;;;;;;;5060628;28;20048;-63
2023/10/24 14:22:40;;;;;;;14.38;11.02;;;;;;;;;;5060657;28;20055;-64
2023/10/24 14:25:08;;;;;;;15.38;10.52;;;;;;;;;;5063075;28;20056;-65
2023/10/24 14:27:37;;;;;;;17.70;11.63;;;;;;;;;;5064179;28;20063;-65
2023/10/24 14:30:04;;;;;;;17.65;10.90;;;;;;;;;;5058912;28;20041;-65